sensor_id;sensor_type;location;lat;lon;timestamp;P1;durP1;ratioP1;P2;durP2;ratioP2
38499;SDS011;24269;51.894;4.622;2023-02-17T00:02:17;14.52;;;6.18;;
38499;SDS011;24269;51.894;4.622;2023-02-17T00:04:42;17.05;;;6.18;;
38499;SDS011;24269;51.894;4.622;2023-02-17T00:07:08;18.38;;;7.30;;
38499;SDS011;24269;51.894;4.622;2023-02-17T00:09:35;20.90;;;7.32;;
38499;SDS011;24269;51.894;4.622;2023-02-17T00:12:01;19.95;;;7.45;;
38499;SDS011;24269;51.894;4.622;2023-02-17T00:14:26;22.65;;;7.65;;
38499;SDS011;24269;51.894;4.622;2023-02-17T00:16:52;23.85;;;8.30;;
38499;SDS011;24269;51.894;4.622;2023-02-17T00:19:17;24.00;;;8.90;;
38499;SDS011;24269;51.894;4.622;2023-02-17T00:21:50;22.73;;;8.82;;
38499;SDS011;24269;51.894;4.622;2023-02-17T00:24:24;25.98;;;9.18;;
38499;SDS011;24269;51.894;4.622;2023-02-17T00:26:52;21.90;;;8.40;;
38499;SDS011;24269;51.894;4.622;2023-02-17T00:29:17;21.88;;;8.35;;
38499;SDS011;24269;51.894;4.622;2023-02-17T00:31:43;20.58;;;7.35;;
38499;SDS011;24269;51.894;4.622;2023-02-17T00:34:09;23.48;;;8.40;;
38499;SDS011;24269;51.894;4.622;2023-02-17T00:36:35;25.35;;;8.50;;
38499;SDS011;24269;51.894;4.622;2023-02-17T00:39:01;22.98;;;7.82;;
38499;SDS011;24269;51.894;4.622;2023-02-17T00:41:28;20.63;;;7.80;;
38499;SDS011;24269;51.894;4.622;2023-02-17T00:43:53;18.05;;;6.40;;
38499;SDS011;24269;51.894;4.622;2023-02-17T00:46:20;16.67;;;6.22;;
38499;SDS011;24269;51.894;4.622;2023-02-17T00:48:46;21.33;;;7.18;;
38499;SDS011;24269;51.894;4.622;2023-02-17T00:51:13;15.43;;;6.10;;
38499;SDS011;24269;51.894;4.622;2023-02-17T00:53:39;19.80;;;6.60;;
38499;SDS011;24269;51.894;4.622;2023-02-17T00:56:06;19.17;;;6.60;;
38499;SDS011;24269;51.894;4.622;2023-02-17T00:58:32;19.77;;;6.55;;
38499;SDS011;24269;51.894;4.622;2023-02-17T01:00:58;20.85;;;6.95;;
38499;SDS011;24269;51.894;4.622;2023-02-17T01:03:25;19.35;;;6.63;;
38499;SDS011;24269;51.894;4.622;2023-02-17T01:05:51;17.58;;;6.82;;
38499;SDS011;24269;51.894;4.622;2023-02-17T01:08:18;20.77;;;7.32;;
38499;SDS011;24269;51.894;4.622;2023-02-17T01:10:44;22.90;;;7.70;;
38499;SDS011;24269;51.894;4.622;2023-02-17T01:13:12;18.58;;;6.65;;
38499;SDS011;24269;51.894;4.622;2023-02-17T01:15:39;16.15;;;6.82;;
38499;SDS011;24269;51.894;4.622;2023-02-17T01:18:06;19.73;;;7.00;;
38499;SDS011;24269;51.894;4.622;2023-02-17T01:20:36;21.00;;;7.45;;
38499;SDS011;24269;51.894;4.622;2023-02-17T01:23:03;23.30;;;7.47;;
38499;SDS011;24269;51.894;4.622;2023-02-17T01:25:29;21.33;;;7.70;;
38499;SDS011;24269;51.894;4.622;2023-02-17T01:27:56;19.73;;;7.22;;
38499;SDS011;24269;51.894;4.622;2023-02-17T01:30:21;23.90;;;7.78;;
38499;SDS011;24269;51.894;4.622;2023-02-17T01:32:47;21.42;;;7.35;;
38499;SDS011;24269;51.894;4.622;2023-02-17T01:35:13;21.00;;;7.07;;
38499;SDS011;24269;51.894;4.622;2023-02-17T01:37:39;19.55;;;6.30;;
38499;SDS011;24269;51.894;4.622;2023-02-17T01:40:07;19.58;;;7.15;;
38499;SDS011;24269;51.894;4.622;2023-02-17T01:42:33;20.40;;;7.03;;
38499;SDS011;24269;51.894;4.622;2023-02-17T01:47:48;19.60;;;6.38;;
38499;SDS011;24269;51.894;4.622;2023-02-17T01:50:15;20.48;;;7.32;;
38499;SDS011;24269;51.894;4.622;2023-02-17T01:52:42;19.80;;;6.22;;
38499;SDS011;24269;51.894;4.622;2023-02-17T01:55:10;19.65;;;7.45;;
38499;SDS011;24269;51.894;4.622;2023-02-17T01:57:38;24.67;;;8.27;;
38499;SDS011;24269;51.894;4.622;2023-02-17T02:00:06;20.45;;;6.75;;
38499;SDS011;24269;51.894;4.622;2023-02-17T02:02:33;22.90;;;7.60;;
38499;SDS011;24269;51.894;4.622;2023-02-17T02:04:59;22.02;;;8.10;;
38499;SDS011;24269;51.894;4.622;2023-02-17T02:07:26;20.40;;;7.95;;
38499;SDS011;24269;51.894;4.622;2023-02-17T02:09:56;21.33;;;7.00;;
38499;SDS011;24269;51.894;4.622;2023-02-17T02:12:24;23.08;;;6.45;;
38499;SDS011;24269;51.894;4.622;2023-02-17T02:14:53;20.10;;;6.38;;
38499;SDS011;24269;51.894;4.622;2023-02-17T02:17:27;23.60;;;7.03;;
38499;SDS011;24269;51.894;4.622;2023-02-17T02:25:59;21.20;;;7.10;;
38499;SDS011;24269;51.894;4.622;2023-02-17T02:28:55;22.00;;;6.75;;
38499;SDS011;24269;51.894;4.622;2023-02-17T02:34:06;17.80;;;6.55;;
38499;SDS011;24269;51.894;4.622;2023-02-17T02:36:49;19.02;;;6.45;;
38499;SDS011;24269;51.894;4.622;2023-02-17T02:39:29;23.85;;;8.02;;
38499;SDS011;24269;51.894;4.622;2023-02-17T02:42:03;24.80;;;8.68;;
38499;SDS011;24269;51.894;4.622;2023-02-17T02:44:31;24.92;;;10.05;;
38499;SDS011;24269;51.894;4.622;2023-02-17T02:47:02;35.25;;;12.02;;
38499;SDS011;24269;51.894;4.622;2023-02-17T02:49:29;33.50;;;12.35;;
38499;SDS011;24269;51.894;4.622;2023-02-17T02:55:03;33.25;;;13.13;;
38499;SDS011;24269;51.894;4.622;2023-02-17T02:57:36;36.15;;;12.38;;
38499;SDS011;24269;51.894;4.622;2023-02-17T03:00:10;32.20;;;12.75;;
38499;SDS011;24269;51.894;4.622;2023-02-17T03:08:07;39.92;;;15.27;;
38499;SDS011;24269;51.894;4.622;2023-02-17T03:10:35;42.42;;;14.68;;
38499;SDS011;24269;51.894;4.622;2023-02-17T03:13:17;32.80;;;12.93;;
38499;SDS011;24269;51.894;4.622;2023-02-17T03:15:45;37.25;;;13.88;;
38499;SDS011;24269;51.894;4.622;2023-02-17T03:18:11;38.28;;;14.30;;
38499;SDS011;24269;51.894;4.622;2023-02-17T03:20:38;31.42;;;12.95;;
38499;SDS011;24269;51.894;4.622;2023-02-17T03:25:34;34.58;;;12.20;;
38499;SDS011;24269;51.894;4.622;2023-02-17T03:28:00;32.55;;;12.02;;
38499;SDS011;24269;51.894;4.622;2023-02-17T03:30:25;30.67;;;11.60;;
38499;SDS011;24269;51.894;4.622;2023-02-17T03:32:52;28.98;;;11.30;;
38499;SDS011;24269;51.894;4.622;2023-02-17T03:35:17;22.65;;;10.13;;
38499;SDS011;24269;51.894;4.622;2023-02-17T03:37:43;27.83;;;10.23;;
38499;SDS011;24269;51.894;4.622;2023-02-17T03:40:09;21.77;;;9.13;;
38499;SDS011;24269;51.894;4.622;2023-02-17T03:42:35;21.38;;;8.35;;
38499;SDS011;24269;51.894;4.622;2023-02-17T03:45:01;26.00;;;9.07;;
38499;SDS011;24269;51.894;4.622;2023-02-17T03:47:26;22.02;;;8.32;;
38499;SDS011;24269;51.894;4.622;2023-02-17T03:49:52;21.08;;;8.80;;
38499;SDS011;24269;51.894;4.622;2023-02-17T03:52:18;23.02;;;7.53;;
38499;SDS011;24269;51.894;4.622;2023-02-17T03:54:43;21.73;;;8.18;;
38499;SDS011;24269;51.894;4.622;2023-02-17T03:57:09;23.23;;;7.63;;
38499;SDS011;24269;51.894;4.622;2023-02-17T03:59:35;17.45;;;7.65;;
38499;SDS011;24269;51.894;4.622;2023-02-17T04:02:00;24.17;;;7.97;;
38499;SDS011;24269;51.894;4.622;2023-02-17T04:04:26;21.40;;;8.05;;
38499;SDS011;24269;51.894;4.622;2023-02-17T04:06:52;21.08;;;7.85;;
38499;SDS011;24269;51.894;4.622;2023-02-17T04:09:17;20.67;;;8.23;;
38499;SDS011;24269;51.894;4.622;2023-02-17T04:11:43;20.73;;;8.80;;
38499;SDS011;24269;51.894;4.622;2023-02-17T04:14:09;23.63;;;9.02;;
38499;SDS011;24269;51.894;4.622;2023-02-17T04:16:34;24.88;;;9.15;;
38499;SDS011;24269;51.894;4.622;2023-02-17T04:19:03;23.83;;;9.60;;
38499;SDS011;24269;51.894;4.622;2023-02-17T04:21:29;19.80;;;8.27;;
38499;SDS011;24269;51.894;4.622;2023-02-17T04:23:55;23.00;;;8.77;;
38499;SDS011;24269;51.894;4.622;2023-02-17T04:26:21;25.45;;;9.13;;
38499;SDS011;24269;51.894;4.622;2023-02-17T04:28:46;23.35;;;9.82;;
38499;SDS011;24269;51.894;4.622;2023-02-17T04:31:12;25.13;;;9.55;;
38499;SDS011;24269;51.894;4.622;2023-02-17T04:33:38;23.45;;;9.52;;
38499;SDS011;24269;51.894;4.622;2023-02-17T04:36:03;25.40;;;10.07;;
38499;SDS011;24269;51.894;4.622;2023-02-17T04:38:30;23.95;;;9.40;;
38499;SDS011;24269;51.894;4.622;2023-02-17T04:40:58;24.38;;;10.32;;
38499;SDS011;24269;51.894;4.622;2023-02-17T04:43:24;27.15;;;10.20;;
38499;SDS011;24269;51.894;4.622;2023-02-17T04:45:51;22.13;;;10.10;;
38499;SDS011;24269;51.894;4.622;2023-02-17T04:48:17;25.38;;;10.23;;
38499;SDS011;24269;51.894;4.622;2023-02-17T04:50:43;25.25;;;10.60;;
38499;SDS011;24269;51.894;4.622;2023-02-17T04:53:09;25.52;;;10.43;;
38499;SDS011;24269;51.894;4.622;2023-02-17T04:55:35;25.25;;;10.70;;
38499;SDS011;24269;51.894;4.622;2023-02-17T04:58:01;26.90;;;11.02;;
38499;SDS011;24269;51.894;4.622;2023-02-17T05:00:27;23.25;;;10.13;;
38499;SDS011;24269;51.894;4.622;2023-02-17T05:02:52;29.15;;;11.52;;
38499;SDS011;24269;51.894;4.622;2023-02-17T05:05:18;27.50;;;11.02;;
38499;SDS011;24269;51.894;4.622;2023-02-17T05:07:45;27.17;;;11.15;;
38499;SDS011;24269;51.894;4.622;2023-02-17T05:10:11;30.33;;;11.07;;
38499;SDS011;24269;51.894;4.622;2023-02-17T05:12:43;30.70;;;11.43;;
38499;SDS011;24269;51.894;4.622;2023-02-17T05:15:09;29.05;;;11.27;;
38499;SDS011;24269;51.894;4.622;2023-02-17T05:17:36;25.70;;;10.60;;
38499;SDS011;24269;51.894;4.622;2023-02-17T05:20:02;26.80;;;11.10;;
38499;SDS011;24269;51.894;4.622;2023-02-17T05:22:28;25.77;;;11.15;;
38499;SDS011;24269;51.894;4.622;2023-02-17T05:24:54;26.88;;;10.75;;
38499;SDS011;24269;51.894;4.622;2023-02-17T05:27:19;35.42;;;12.30;;
38499;SDS011;24269;51.894;4.622;2023-02-17T05:29:45;26.58;;;9.98;;
38499;SDS011;24269;51.894;4.622;2023-02-17T05:32:11;28.02;;;10.88;;
38499;SDS011;24269;51.894;4.622;2023-02-17T05:34:37;26.90;;;10.40;;
38499;SDS011;24269;51.894;4.622;2023-02-17T05:37:03;29.55;;;11.20;;
38499;SDS011;24269;51.894;4.622;2023-02-17T05:39:29;28.65;;;10.48;;
38499;SDS011;24269;51.894;4.622;2023-02-17T05:41:55;27.02;;;10.18;;
38499;SDS011;24269;51.894;4.622;2023-02-17T05:44:20;27.75;;;10.15;;
38499;SDS011;24269;51.894;4.622;2023-02-17T05:46:46;26.75;;;9.52;;
38499;SDS011;24269;51.894;4.622;2023-02-17T05:49:12;28.77;;;8.90;;
38499;SDS011;24269;51.894;4.622;2023-02-17T05:51:37;23.90;;;8.43;;
38499;SDS011;24269;51.894;4.622;2023-02-17T05:54:03;23.67;;;8.70;;
38499;SDS011;24269;51.894;4.622;2023-02-17T05:56:29;24.52;;;9.93;;
38499;SDS011;24269;51.894;4.622;2023-02-17T05:58:54;28.27;;;10.50;;
38499;SDS011;24269;51.894;4.622;2023-02-17T06:01:20;21.48;;;9.45;;
38499;SDS011;24269;51.894;4.622;2023-02-17T06:03:46;25.30;;;9.43;;
38499;SDS011;24269;51.894;4.622;2023-02-17T06:06:12;23.00;;;9.25;;
38499;SDS011;24269;51.894;4.622;2023-02-17T06:08:38;24.27;;;9.75;;
38499;SDS011;24269;51.894;4.622;2023-02-17T06:11:04;22.85;;;9.63;;
38499;SDS011;24269;51.894;4.622;2023-02-17T06:13:30;22.90;;;9.10;;
38499;SDS011;24269;51.894;4.622;2023-02-17T06:15:56;27.42;;;10.35;;
38499;SDS011;24269;51.894;4.622;2023-02-17T06:18:22;26.63;;;10.45;;
38499;SDS011;24269;51.894;4.622;2023-02-17T06:20:48;23.63;;;8.75;;
38499;SDS011;24269;51.894;4.622;2023-02-17T06:23:14;26.63;;;9.48;;
38499;SDS011;24269;51.894;4.622;2023-02-17T06:25:39;22.83;;;9.85;;
38499;SDS011;24269;51.894;4.622;2023-02-17T06:28:05;26.77;;;9.15;;
38499;SDS011;24269;51.894;4.622;2023-02-17T06:30:31;24.80;;;9.60;;
38499;SDS011;24269;51.894;4.622;2023-02-17T06:32:56;21.15;;;8.20;;
38499;SDS011;24269;51.894;4.622;2023-02-17T06:35:23;23.23;;;9.02;;
38499;SDS011;24269;51.894;4.622;2023-02-17T06:37:48;25.50;;;8.70;;
38499;SDS011;24269;51.894;4.622;2023-02-17T06:40:14;20.42;;;7.85;;
38499;SDS011;24269;51.894;4.622;2023-02-17T06:42:40;23.02;;;7.88;;
38499;SDS011;24269;51.894;4.622;2023-02-17T06:45:06;18.23;;;7.22;;
38499;SDS011;24269;51.894;4.622;2023-02-17T06:47:32;20.55;;;7.32;;
38499;SDS011;24269;51.894;4.622;2023-02-17T06:49:58;18.92;;;7.03;;
38499;SDS011;24269;51.894;4.622;2023-02-17T06:52:24;18.65;;;7.15;;
38499;SDS011;24269;51.894;4.622;2023-02-17T06:54:49;17.17;;;6.75;;
38499;SDS011;24269;51.894;4.622;2023-02-17T06:57:15;17.95;;;7.15;;
38499;SDS011;24269;51.894;4.622;2023-02-17T06:59:42;12.88;;;5.85;;
38499;SDS011;24269;51.894;4.622;2023-02-17T07:02:09;14.38;;;6.32;;
38499;SDS011;24269;51.894;4.622;2023-02-17T07:04:36;18.33;;;6.82;;
38499;SDS011;24269;51.894;4.622;2023-02-17T07:07:02;20.63;;;8.00;;
38499;SDS011;24269;51.894;4.622;2023-02-17T07:09:28;19.05;;;7.85;;
38499;SDS011;24269;51.894;4.622;2023-02-17T07:11:53;42.78;;;17.70;;
38499;SDS011;24269;51.894;4.622;2023-02-17T07:14:19;22.45;;;8.52;;
38499;SDS011;24269;51.894;4.622;2023-02-17T07:16:45;28.08;;;12.48;;
38499;SDS011;24269;51.894;4.622;2023-02-17T07:19:10;14.68;;;7.30;;
38499;SDS011;24269;51.894;4.622;2023-02-17T07:21:36;17.25;;;7.35;;
38499;SDS011;24269;51.894;4.622;2023-02-17T07:24:02;17.98;;;7.75;;
38499;SDS011;24269;51.894;4.622;2023-02-17T07:26:27;14.77;;;7.03;;
38499;SDS011;24269;51.894;4.622;2023-02-17T07:28:53;21.52;;;8.27;;
38499;SDS011;24269;51.894;4.622;2023-02-17T07:31:18;19.40;;;8.45;;
38499;SDS011;24269;51.894;4.622;2023-02-17T07:33:44;18.23;;;8.40;;
38499;SDS011;24269;51.894;4.622;2023-02-17T07:36:13;22.48;;;8.77;;
38499;SDS011;24269;51.894;4.622;2023-02-17T07:38:41;17.30;;;7.63;;
38499;SDS011;24269;51.894;4.622;2023-02-17T07:41:10;18.30;;;8.10;;
38499;SDS011;24269;51.894;4.622;2023-02-17T07:43:38;16.48;;;7.40;;
38499;SDS011;24269;51.894;4.622;2023-02-17T07:46:04;18.05;;;7.30;;
38499;SDS011;24269;51.894;4.622;2023-02-17T07:48:31;15.57;;;7.13;;
38499;SDS011;24269;51.894;4.622;2023-02-17T07:51:02;16.35;;;7.22;;
38499;SDS011;24269;51.894;4.622;2023-02-17T07:53:29;14.88;;;7.60;;
38499;SDS011;24269;51.894;4.622;2023-02-17T07:55:55;18.35;;;7.47;;
38499;SDS011;24269;51.894;4.622;2023-02-17T07:58:20;15.35;;;7.68;;
38499;SDS011;24269;51.894;4.622;2023-02-17T08:00:46;14.52;;;7.22;;
38499;SDS011;24269;51.894;4.622;2023-02-17T08:03:11;16.60;;;6.93;;
38499;SDS011;24269;51.894;4.622;2023-02-17T08:05:38;14.38;;;7.18;;
38499;SDS011;24269;51.894;4.622;2023-02-17T08:08:05;15.25;;;6.47;;
38499;SDS011;24269;51.894;4.622;2023-02-17T08:10:50;13.50;;;6.43;;
38499;SDS011;24269;51.894;4.622;2023-02-17T08:13:34;14.48;;;6.82;;
38499;SDS011;24269;51.894;4.622;2023-02-17T08:16:00;16.15;;;6.28;;
38499;SDS011;24269;51.894;4.622;2023-02-17T08:18:26;15.50;;;6.75;;
38499;SDS011;24269;51.894;4.622;2023-02-17T08:20:51;13.88;;;6.65;;
38499;SDS011;24269;51.894;4.622;2023-02-17T08:23:18;14.10;;;7.22;;
38499;SDS011;24269;51.894;4.622;2023-02-17T08:25:44;11.30;;;6.40;;
38499;SDS011;24269;51.894;4.622;2023-02-17T08:28:10;13.32;;;6.40;;
38499;SDS011;24269;51.894;4.622;2023-02-17T08:30:36;11.68;;;5.82;;
38499;SDS011;24269;51.894;4.622;2023-02-17T08:33:02;11.30;;;6.03;;
38499;SDS011;24269;51.894;4.622;2023-02-17T08:35:28;10.35;;;5.18;;
38499;SDS011;24269;51.894;4.622;2023-02-17T08:37:54;13.32;;;5.82;;
38499;SDS011;24269;51.894;4.622;2023-02-17T08:40:20;11.65;;;5.78;;
38499;SDS011;24269;51.894;4.622;2023-02-17T08:42:45;12.45;;;6.20;;
38499;SDS011;24269;51.894;4.622;2023-02-17T08:45:12;13.95;;;6.85;;
38499;SDS011;24269;51.894;4.622;2023-02-17T08:47:38;11.48;;;6.22;;
38499;SDS011;24269;51.894;4.622;2023-02-17T08:50:05;12.18;;;6.13;;
38499;SDS011;24269;51.894;4.622;2023-02-17T08:52:33;13.85;;;6.82;;
38499;SDS011;24269;51.894;4.622;2023-02-17T08:54:59;10.18;;;5.72;;
38499;SDS011;24269;51.894;4.622;2023-02-17T08:57:24;13.40;;;6.93;;
38499;SDS011;24269;51.894;4.622;2023-02-17T08:59:51;11.02;;;5.25;;
38499;SDS011;24269;51.894;4.622;2023-02-17T09:02:17;12.07;;;6.00;;
38499;SDS011;24269;51.894;4.622;2023-02-17T09:04:43;13.98;;;6.60;;
38499;SDS011;24269;51.894;4.622;2023-02-17T09:07:10;13.98;;;6.55;;
38499;SDS011;24269;51.894;4.622;2023-02-17T09:09:37;13.15;;;7.05;;
38499;SDS011;24269;51.894;4.622;2023-02-17T09:12:03;15.23;;;6.85;;
38499;SDS011;24269;51.894;4.622;2023-02-17T09:14:29;16.73;;;8.60;;
38499;SDS011;24269;51.894;4.622;2023-02-17T09:16:55;28.08;;;12.25;;
38499;SDS011;24269;51.894;4.622;2023-02-17T09:19:21;16.27;;;7.97;;
38499;SDS011;24269;51.894;4.622;2023-02-17T09:21:47;13.70;;;5.80;;
38499;SDS011;24269;51.894;4.622;2023-02-17T09:24:13;13.35;;;6.35;;
38499;SDS011;24269;51.894;4.622;2023-02-17T09:26:39;12.98;;;5.50;;
38499;SDS011;24269;51.894;4.622;2023-02-17T09:29:05;16.13;;;7.07;;
38499;SDS011;24269;51.894;4.622;2023-02-17T09:31:32;13.88;;;5.72;;
38499;SDS011;24269;51.894;4.622;2023-02-17T09:33:59;13.55;;;5.88;;
38499;SDS011;24269;51.894;4.622;2023-02-17T09:36:26;15.43;;;6.50;;
38499;SDS011;24269;51.894;4.622;2023-02-17T09:38:53;17.15;;;7.45;;
38499;SDS011;24269;51.894;4.622;2023-02-17T09:49:47;15.10;;;8.05;;
38499;SDS011;24269;51.894;4.622;2023-02-17T09:57:30;17.48;;;7.25;;
38499;SDS011;24269;51.894;4.622;2023-02-17T10:00:02;15.07;;;6.38;;
38499;SDS011;24269;51.894;4.622;2023-02-17T10:02:44;11.35;;;5.78;;
38499;SDS011;24269;51.894;4.622;2023-02-17T10:05:19;19.35;;;8.95;;
38499;SDS011;24269;51.894;4.622;2023-02-17T10:08:00;16.13;;;6.65;;
38499;SDS011;24269;51.894;4.622;2023-02-17T10:10:53;12.60;;;6.47;;
38499;SDS011;24269;51.894;4.622;2023-02-17T10:13:23;16.25;;;7.10;;
38499;SDS011;24269;51.894;4.622;2023-02-17T10:15:54;14.07;;;5.90;;
38499;SDS011;24269;51.894;4.622;2023-02-17T10:18:45;12.98;;;5.57;;
38499;SDS011;24269;51.894;4.622;2023-02-17T10:21:16;20.92;;;8.05;;
38499;SDS011;24269;51.894;4.622;2023-02-17T10:23:47;12.45;;;5.95;;
38499;SDS011;24269;51.894;4.622;2023-02-17T10:28:50;13.32;;;6.30;;
38499;SDS011;24269;51.894;4.622;2023-02-17T10:31:37;10.65;;;5.18;;
38499;SDS011;24269;51.894;4.622;2023-02-17T10:34:33;11.20;;;5.38;;
38499;SDS011;24269;51.894;4.622;2023-02-17T10:37:01;11.30;;;6.03;;
38499;SDS011;24269;51.894;4.622;2023-02-17T10:39:46;12.48;;;6.10;;
38499;SDS011;24269;51.894;4.622;2023-02-17T10:44:49;11.65;;;6.25;;
38499;SDS011;24269;51.894;4.622;2023-02-17T10:47:17;13.10;;;6.68;;
38499;SDS011;24269;51.894;4.622;2023-02-17T10:49:46;12.85;;;5.07;;
38499;SDS011;24269;51.894;4.622;2023-02-17T10:52:18;9.40;;;4.63;;
38499;SDS011;24269;51.894;4.622;2023-02-17T10:54:53;9.10;;;5.20;;
38499;SDS011;24269;51.894;4.622;2023-02-17T10:57:21;11.50;;;5.18;;
38499;SDS011;24269;51.894;4.622;2023-02-17T10:59:48;10.00;;;4.70;;
38499;SDS011;24269;51.894;4.622;2023-02-17T11:04:50;11.75;;;5.38;;
38499;SDS011;24269;51.894;4.622;2023-02-17T11:07:21;10.80;;;4.57;;
38499;SDS011;24269;51.894;4.622;2023-02-17T11:09:55;10.48;;;4.20;;
38499;SDS011;24269;51.894;4.622;2023-02-17T11:12:31;11.20;;;4.15;;
38499;SDS011;24269;51.894;4.622;2023-02-17T11:15:02;8.70;;;4.10;;
38499;SDS011;24269;51.894;4.622;2023-02-17T11:17:37;9.52;;;3.92;;
38499;SDS011;24269;51.894;4.622;2023-02-17T11:20:06;8.73;;;3.75;;
38499;SDS011;24269;51.894;4.622;2023-02-17T11:25:59;10.88;;;3.20;;
38499;SDS011;24269;51.894;4.622;2023-02-17T11:28:27;8.00;;;2.85;;
38499;SDS011;24269;51.894;4.622;2023-02-17T11:30:54;8.10;;;3.30;;
38499;SDS011;24269;51.894;4.622;2023-02-17T11:33:29;9.95;;;3.75;;
38499;SDS011;24269;51.894;4.622;2023-02-17T11:35:58;12.57;;;3.83;;
38499;SDS011;24269;51.894;4.622;2023-02-17T11:38:28;9.18;;;3.72;;
38499;SDS011;24269;51.894;4.622;2023-02-17T11:41:05;12.35;;;3.95;;
38499;SDS011;24269;51.894;4.622;2023-02-17T11:43:32;7.47;;;3.00;;
38499;SDS011;24269;51.894;4.622;2023-02-17T11:49:09;8.45;;;3.22;;
38499;SDS011;24269;51.894;4.622;2023-02-17T11:54:25;10.60;;;3.55;;
38499;SDS011;24269;51.894;4.622;2023-02-17T12:02:43;8.18;;;2.42;;
38499;SDS011;24269;51.894;4.622;2023-02-17T12:13:32;5.15;;;2.25;;
38499;SDS011;24269;51.894;4.622;2023-02-17T12:18:43;7.30;;;2.25;;
38499;SDS011;24269;51.894;4.622;2023-02-17T12:36:07;6.32;;;2.08;;
38499;SDS011;24269;51.894;4.622;2023-02-17T12:38:43;7.70;;;2.40;;
38499;SDS011;24269;51.894;4.622;2023-02-17T12:43:54;8.07;;;2.53;;
38499;SDS011;24269;51.894;4.622;2023-02-17T12:46:31;10.13;;;2.50;;
38499;SDS011;24269;51.894;4.622;2023-02-17T12:49:04;6.28;;;2.10;;
38499;SDS011;24269;51.894;4.622;2023-02-17T12:54:44;8.02;;;2.72;;
38499;SDS011;24269;51.894;4.622;2023-02-17T12:57:12;7.95;;;2.30;;
38499;SDS011;24269;51.894;4.622;2023-02-17T12:59:44;7.82;;;2.28;;
38499;SDS011;24269;51.894;4.622;2023-02-17T13:02:15;10.48;;;2.50;;
38499;SDS011;24269;51.894;4.622;2023-02-17T13:04:44;6.63;;;2.08;;
38499;SDS011;24269;51.894;4.622;2023-02-17T13:09:50;10.05;;;2.00;;
38499;SDS011;24269;51.894;4.622;2023-02-17T13:14:49;9.45;;;2.38;;
38499;SDS011;24269;51.894;4.622;2023-02-17T13:22:41;11.77;;;3.40;;
38499;SDS011;24269;51.894;4.622;2023-02-17T13:25:11;6.43;;;2.20;;
38499;SDS011;24269;51.894;4.622;2023-02-17T13:27:50;13.82;;;2.15;;
38499;SDS011;24269;51.894;4.622;2023-02-17T13:32:45;7.50;;;2.53;;
38499;SDS011;24269;51.894;4.622;2023-02-17T13:42:41;9.18;;;2.85;;
38499;SDS011;24269;51.894;4.622;2023-02-17T13:48:27;11.27;;;2.92;;
38499;SDS011;24269;51.894;4.622;2023-02-17T13:50:56;18.13;;;6.85;;
38499;SDS011;24269;51.894;4.622;2023-02-17T13:53:28;17.60;;;4.90;;
38499;SDS011;24269;51.894;4.622;2023-02-17T13:55:59;11.30;;;1.80;;
38499;SDS011;24269;51.894;4.622;2023-02-17T14:00:55;10.55;;;3.45;;
38499;SDS011;24269;51.894;4.622;2023-02-17T14:05:54;11.13;;;2.75;;
38499;SDS011;24269;51.894;4.622;2023-02-17T14:11:07;11.05;;;2.47;;
38499;SDS011;24269;51.894;4.622;2023-02-17T14:13:47;9.30;;;1.90;;
38499;SDS011;24269;51.894;4.622;2023-02-17T14:19:06;13.95;;;2.78;;
38499;SDS011;24269;51.894;4.622;2023-02-17T14:21:39;10.95;;;2.70;;
38499;SDS011;24269;51.894;4.622;2023-02-17T14:24:06;15.88;;;3.53;;
38499;SDS011;24269;51.894;4.622;2023-02-17T14:26:47;12.40;;;2.53;;
38499;SDS011;24269;51.894;4.622;2023-02-17T14:29:13;9.13;;;2.05;;
38499;SDS011;24269;51.894;4.622;2023-02-17T14:31:50;14.20;;;3.80;;
38499;SDS011;24269;51.894;4.622;2023-02-17T14:39:46;11.27;;;2.25;;
38499;SDS011;24269;51.894;4.622;2023-02-17T14:42:12;11.10;;;2.50;;
38499;SDS011;24269;51.894;4.622;2023-02-17T14:44:38;12.48;;;2.17;;
38499;SDS011;24269;51.894;4.622;2023-02-17T14:47:04;17.20;;;3.10;;
38499;SDS011;24269;51.894;4.622;2023-02-17T14:49:30;17.38;;;5.20;;
38499;SDS011;24269;51.894;4.622;2023-02-17T14:51:55;11.23;;;3.67;;
38499;SDS011;24269;51.894;4.622;2023-02-17T14:54:21;6.82;;;2.30;;
38499;SDS011;24269;51.894;4.622;2023-02-17T14:56:52;14.80;;;4.28;;
38499;SDS011;24269;51.894;4.622;2023-02-17T14:59:21;15.05;;;5.55;;
38499;SDS011;24269;51.894;4.622;2023-02-17T15:01:47;14.73;;;2.63;;
38499;SDS011;24269;51.894;4.622;2023-02-17T15:04:12;9.35;;;2.55;;
38499;SDS011;24269;51.894;4.622;2023-02-17T15:06:42;33.83;;;14.73;;
38499;SDS011;24269;51.894;4.622;2023-02-17T15:09:11;12.00;;;3.10;;
38499;SDS011;24269;51.894;4.622;2023-02-17T15:11:39;16.60;;;3.22;;
38499;SDS011;24269;51.894;4.622;2023-02-17T15:14:12;10.70;;;2.47;;
38499;SDS011;24269;51.894;4.622;2023-02-17T15:16:40;10.45;;;2.80;;
38499;SDS011;24269;51.894;4.622;2023-02-17T15:19:06;11.43;;;2.63;;
38499;SDS011;24269;51.894;4.622;2023-02-17T15:21:33;10.18;;;2.78;;
38499;SDS011;24269;51.894;4.622;2023-02-17T15:24:00;14.13;;;3.58;;
38499;SDS011;24269;51.894;4.622;2023-02-17T15:26:27;12.93;;;2.97;;
38499;SDS011;24269;51.894;4.622;2023-02-17T15:28:57;9.65;;;2.55;;
38499;SDS011;24269;51.894;4.622;2023-02-17T15:31:23;8.90;;;3.30;;
38499;SDS011;24269;51.894;4.622;2023-02-17T15:33:57;10.93;;;2.40;;
38499;SDS011;24269;51.894;4.622;2023-02-17T15:36:24;9.57;;;3.15;;
38499;SDS011;24269;51.894;4.622;2023-02-17T15:38:51;13.77;;;3.30;;
38499;SDS011;24269;51.894;4.622;2023-02-17T15:41:26;12.68;;;4.60;;
38499;SDS011;24269;51.894;4.622;2023-02-17T15:43:53;14.15;;;3.15;;
38499;SDS011;24269;51.894;4.622;2023-02-17T15:46:21;26.92;;;11.65;;
38499;SDS011;24269;51.894;4.622;2023-02-17T15:48:53;8.63;;;2.42;;
38499;SDS011;24269;51.894;4.622;2023-02-17T15:51:18;10.50;;;3.65;;
38499;SDS011;24269;51.894;4.622;2023-02-17T15:53:45;21.25;;;6.15;;
38499;SDS011;24269;51.894;4.622;2023-02-17T15:56:12;13.85;;;3.63;;
38499;SDS011;24269;51.894;4.622;2023-02-17T15:58:43;12.65;;;2.72;;
38499;SDS011;24269;51.894;4.622;2023-02-17T16:01:18;14.73;;;3.83;;
38499;SDS011;24269;51.894;4.622;2023-02-17T16:03:53;14.50;;;2.85;;
38499;SDS011;24269;51.894;4.622;2023-02-17T16:06:20;10.45;;;3.10;;
38499;SDS011;24269;51.894;4.622;2023-02-17T16:08:45;15.63;;;6.13;;
38499;SDS011;24269;51.894;4.622;2023-02-17T16:11:12;11.80;;;4.38;;
38499;SDS011;24269;51.894;4.622;2023-02-17T16:13:39;15.55;;;4.50;;
38499;SDS011;24269;51.894;4.622;2023-02-17T16:16:08;10.85;;;2.45;;
38499;SDS011;24269;51.894;4.622;2023-02-17T16:18:46;14.20;;;3.38;;
38499;SDS011;24269;51.894;4.622;2023-02-17T16:21:12;11.07;;;2.47;;
38499;SDS011;24269;51.894;4.622;2023-02-17T16:23:38;18.08;;;5.38;;
38499;SDS011;24269;51.894;4.622;2023-02-17T16:26:07;31.85;;;10.68;;
38499;SDS011;24269;51.894;4.622;2023-02-17T16:28:56;20.10;;;6.70;;
38499;SDS011;24269;51.894;4.622;2023-02-17T16:31:22;22.70;;;7.32;;
38499;SDS011;24269;51.894;4.622;2023-02-17T16:33:48;22.90;;;6.38;;
38499;SDS011;24269;51.894;4.622;2023-02-17T16:36:16;17.90;;;3.45;;
38499;SDS011;24269;51.894;4.622;2023-02-17T16:38:44;10.35;;;2.08;;
38499;SDS011;24269;51.894;4.622;2023-02-17T16:41:14;9.13;;;1.70;;
38499;SDS011;24269;51.894;4.622;2023-02-17T16:43:42;9.13;;;1.75;;
38499;SDS011;24269;51.894;4.622;2023-02-17T16:46:16;10.57;;;1.95;;
38499;SDS011;24269;51.894;4.622;2023-02-17T16:48:42;8.52;;;1.90;;
38499;SDS011;24269;51.894;4.622;2023-02-17T16:51:08;12.50;;;1.88;;